sensor_id;sensor_type;location;lat;lon;timestamp;pressure;altitude;pressure_sealevel;temperature;humidity
61292;BME280;47165;42.664;23.368;2023-02-18T00:02:08;95756.84;;;7.04;42.79
61292;BME280;47165;42.664;23.368;2023-02-18T00:04:34;95765.06;;;7.19;42.66
61292;BME280;47165;42.664;23.368;2023-02-18T00:06:59;95768.50;;;7.19;42.47
61292;BME280;47165;42.664;23.368;2023-02-18T00:09:25;95767.84;;;7.13;42.89
61292;BME280;47165;42.664;23.368;2023-02-18T00:11:51;95759.25;;;7.11;42.77
61292;BME280;47165;42.664;23.368;2023-02-18T00:14:17;95759.38;;;7.08;42.86
61292;BME280;47165;42.664;23.368;2023-02-18T00:16:43;95747.47;;;7.00;42.91
61292;BME280;47165;42.664;23.368;2023-02-18T00:19:15;95743.72;;;7.09;43.01
61292;BME280;47165;42.664;23.368;2023-02-18T00:21:41;95738.63;;;7.06;42.81
61292;BME280;47165;42.664;23.368;2023-02-18T00:24:08;95732.59;;;7.05;43.22
61292;BME280;47165;42.664;23.368;2023-02-18T00:26:34;95730.47;;;6.90;43.18
61292;BME280;47165;42.664;23.368;2023-02-18T00:29:00;95721.03;;;6.88;43.33
61292;BME280;47165;42.664;23.368;2023-02-18T00:31:33;95726.00;;;6.95;43.33
61292;BME280;47165;42.664;23.368;2023-02-18T00:33:59;95710.50;;;6.92;43.31
61292;BME280;47165;42.664;23.368;2023-02-18T00:36:25;95710.88;;;6.80;43.71
61292;BME280;47165;42.664;23.368;2023-02-18T00:38:54;95718.69;;;6.78;43.71
61292;BME280;47165;42.664;23.368;2023-02-18T00:41:21;95713.03;;;6.65;43.93
61292;BME280;47165;42.664;23.368;2023-02-18T00:43:47;95711.38;;;6.64;44.01
61292;BME280;47165;42.664;23.368;2023-02-18T00:46:13;95710.59;;;6.61;44.23
61292;BME280;47165;42.664;23.368;2023-02-18T00:48:39;95705.38;;;6.62;44.47
61292;BME280;47165;42.664;23.368;2023-02-18T00:51:05;95713.25;;;6.58;44.56
61292;BME280;47165;42.664;23.368;2023-02-18T00:53:32;95708.50;;;6.44;44.97
61292;BME280;47165;42.664;23.368;2023-02-18T00:55:58;95714.44;;;6.48;44.64
61292;BME280;47165;42.664;23.368;2023-02-18T00:58:23;95705.38;;;6.33;44.91
61292;BME280;47165;42.664;23.368;2023-02-18T01:00:49;95698.75;;;6.22;45.46
61292;BME280;47165;42.664;23.368;2023-02-18T01:03:14;95717.09;;;6.15;45.67
61292;BME280;47165;42.664;23.368;2023-02-18T01:05:40;95717.63;;;5.96;46.21
61292;BME280;47165;42.664;23.368;2023-02-18T01:08:07;95719.16;;;6.03;46.17
61292;BME280;47165;42.664;23.368;2023-02-18T01:10:34;95719.03;;;6.08;45.99
61292;BME280;47165;42.664;23.368;2023-02-18T01:13:01;95708.59;;;6.11;45.89
61292;BME280;47165;42.664;23.368;2023-02-18T01:15:29;95715.28;;;5.85;46.53
61292;BME280;47165;42.664;23.368;2023-02-18T01:17:54;95717.34;;;5.74;46.79
61292;BME280;47165;42.664;23.368;2023-02-18T01:20:20;95699.09;;;5.44;47.33
61292;BME280;47165;42.664;23.368;2023-02-18T01:22:46;95711.53;;;5.64;47.29
61292;BME280;47165;42.664;23.368;2023-02-18T01:25:12;95715.72;;;5.70;46.96
61292;BME280;47165;42.664;23.368;2023-02-18T01:27:37;95705.56;;;5.61;47.32
61292;BME280;47165;42.664;23.368;2023-02-18T01:30:07;95701.03;;;5.36;47.75
61292;BME280;47165;42.664;23.368;2023-02-18T01:32:33;95711.63;;;5.27;47.85
61292;BME280;47165;42.664;23.368;2023-02-18T01:35:04;95700.00;;;5.43;47.87
61292;BME280;47165;42.664;23.368;2023-02-18T01:37:30;95690.59;;;5.39;47.60
61292;BME280;47165;42.664;23.368;2023-02-18T01:39:55;95701.38;;;5.57;47.39
61292;BME280;47165;42.664;23.368;2023-02-18T01:42:24;95702.91;;;5.64;47.35
61292;BME280;47165;42.664;23.368;2023-02-18T01:44:50;95708.78;;;5.71;47.21
61292;BME280;47165;42.664;23.368;2023-02-18T01:47:16;95712.31;;;5.68;47.37
61292;BME280;47165;42.664;23.368;2023-02-18T01:49:42;95712.84;;;5.47;47.68
61292;BME280;47165;42.664;23.368;2023-02-18T01:52:17;95714.50;;;5.49;47.33
61292;BME280;47165;42.664;23.368;2023-02-18T01:54:46;95721.53;;;5.46;47.83
61292;BME280;47165;42.664;23.368;2023-02-18T01:57:19;95728.06;;;5.60;47.55
61292;BME280;47165;42.664;23.368;2023-02-18T01:59:52;95724.28;;;5.72;47.09
61292;BME280;47165;42.664;23.368;2023-02-18T02:02:23;95720.56;;;5.82;46.64
61292;BME280;47165;42.664;23.368;2023-02-18T02:04:49;95714.41;;;5.87;46.39
61292;BME280;47165;42.664;23.368;2023-02-18T02:07:17;95714.25;;;5.93;46.20
61292;BME280;47165;42.664;23.368;2023-02-18T02:09:43;95708.25;;;5.91;46.45
61292;BME280;47165;42.664;23.368;2023-02-18T02:38:40;95697.81;;;5.61;47.33
61292;BME280;47165;42.664;23.368;2023-02-18T02:44:18;95693.72;;;5.52;47.32
61292;BME280;47165;42.664;23.368;2023-02-18T02:46:46;95685.03;;;5.53;47.34
61292;BME280;47165;42.664;23.368;2023-02-18T02:52:23;95683.97;;;5.62;47.04
61292;BME280;47165;42.664;23.368;2023-02-18T02:54:50;95694.38;;;5.60;47.25
61292;BME280;47165;42.664;23.368;2023-02-18T02:59:44;95688.19;;;5.66;46.85
61292;BME280;47165;42.664;23.368;2023-02-18T03:08:11;95707.81;;;5.75;46.93
61292;BME280;47165;42.664;23.368;2023-02-18T03:10:48;95708.50;;;5.81;46.67
61292;BME280;47165;42.664;23.368;2023-02-18T03:18:50;95690.47;;;5.77;46.79
61292;BME280;47165;42.664;23.368;2023-02-18T03:26:20;95721.56;;;5.77;46.94
61292;BME280;47165;42.664;23.368;2023-02-18T03:28:48;95726.88;;;5.72;46.98
61292;BME280;47165;42.664;23.368;2023-02-18T03:31:17;95726.72;;;5.78;46.82
61292;BME280;47165;42.664;23.368;2023-02-18T03:33:51;95746.56;;;5.79;46.72
61292;BME280;47165;42.664;23.368;2023-02-18T03:36:20;95737.94;;;5.79;46.69
61292;BME280;47165;42.664;23.368;2023-02-18T03:38:55;95738.88;;;5.76;46.85
61292;BME280;47165;42.664;23.368;2023-02-18T03:41:21;95749.44;;;5.69;46.80
61292;BME280;47165;42.664;23.368;2023-02-18T03:43:51;95747.28;;;5.52;47.38
61292;BME280;47165;42.664;23.368;2023-02-18T03:46:17;95744.19;;;5.37;47.49
61292;BME280;47165;42.664;23.368;2023-02-18T03:48:43;95755.25;;;5.42;47.60
61292;BME280;47165;42.664;23.368;2023-02-18T03:51:09;95762.97;;;5.46;47.43
61292;BME280;47165;42.664;23.368;2023-02-18T03:53:34;95756.16;;;5.41;47.49
61292;BME280;47165;42.664;23.368;2023-02-18T03:56:00;95765.44;;;5.50;47.21
61292;BME280;47165;42.664;23.368;2023-02-18T03:58:25;95767.28;;;5.45;47.29
61292;BME280;47165;42.664;23.368;2023-02-18T04:00:50;95766.66;;;5.35;47.69
61292;BME280;47165;42.664;23.368;2023-02-18T04:03:16;95757.34;;;5.27;47.85
61292;BME280;47165;42.664;23.368;2023-02-18T04:05:41;95747.13;;;5.22;48.13
61292;BME280;47165;42.664;23.368;2023-02-18T04:08:07;95751.38;;;5.24;48.21
61292;BME280;47165;42.664;23.368;2023-02-18T04:10:32;95741.88;;;5.25;48.16
61292;BME280;47165;42.664;23.368;2023-02-18T04:12:58;95756.63;;;5.21;48.08
61292;BME280;47165;42.664;23.368;2023-02-18T04:15:23;95742.25;;;5.10;48.59
61292;BME280;47165;42.664;23.368;2023-02-18T04:17:49;95739.78;;;5.03;48.79
61292;BME280;47165;42.664;23.368;2023-02-18T04:20:14;95738.09;;;5.02;48.77
61292;BME280;47165;42.664;23.368;2023-02-18T04:22:41;95733.78;;;5.03;48.81
61292;BME280;47165;42.664;23.368;2023-02-18T04:25:07;95726.75;;;5.08;48.62
61292;BME280;47165;42.664;23.368;2023-02-18T04:27:32;95736.25;;;5.08;48.80
61292;BME280;47165;42.664;23.368;2023-02-18T04:29:58;95729.38;;;5.07;48.91
61292;BME280;47165;42.664;23.368;2023-02-18T04:32:23;95719.09;;;5.03;48.81
61292;BME280;47165;42.664;23.368;2023-02-18T04:34:49;95714.84;;;5.01;48.82
61292;BME280;47165;42.664;23.368;2023-02-18T04:37:14;95726.31;;;4.89;49.25
61292;BME280;47165;42.664;23.368;2023-02-18T04:39:39;95714.28;;;4.88;49.28
61292;BME280;47165;42.664;23.368;2023-02-18T04:42:05;95716.06;;;4.86;49.44
61292;BME280;47165;42.664;23.368;2023-02-18T04:44:34;95714.16;;;4.94;49.55
61292;BME280;47165;42.664;23.368;2023-02-18T04:47:00;95711.47;;;4.97;49.28
61292;BME280;47165;42.664;23.368;2023-02-18T04:49:25;95734.47;;;5.10;48.94
61292;BME280;47165;42.664;23.368;2023-02-18T04:51:51;95725.72;;;5.15;48.76
61292;BME280;47165;42.664;23.368;2023-02-18T04:54:16;95718.94;;;5.10;48.89
61292;BME280;47165;42.664;23.368;2023-02-18T04:56:42;95729.03;;;5.20;48.73
61292;BME280;47165;42.664;23.368;2023-02-18T04:59:08;95727.31;;;5.21;48.69
61292;BME280;47165;42.664;23.368;2023-02-18T05:01:35;95742.84;;;5.21;48.51
61292;BME280;47165;42.664;23.368;2023-02-18T05:04:01;95740.25;;;5.21;48.69
61292;BME280;47165;42.664;23.368;2023-02-18T05:06:26;95742.09;;;5.16;48.77
61292;BME280;47165;42.664;23.368;2023-02-18T05:08:52;95748.91;;;5.20;49.03
61292;BME280;47165;42.664;23.368;2023-02-18T05:11:17;95754.97;;;5.19;48.71
61292;BME280;47165;42.664;23.368;2023-02-18T05:13:42;95743.84;;;5.15;48.82
61292;BME280;47165;42.664;23.368;2023-02-18T05:16:08;95738.72;;;5.12;49.23
61292;BME280;47165;42.664;23.368;2023-02-18T05:18:33;95733.84;;;5.00;49.26
61292;BME280;47165;42.664;23.368;2023-02-18T05:20:59;95734.91;;;4.91;49.31
61292;BME280;47165;42.664;23.368;2023-02-18T05:23:24;95746.06;;;4.93;49.60
61292;BME280;47165;42.664;23.368;2023-02-18T05:25:50;95744.19;;;5.00;49.66
61292;BME280;47165;42.664;23.368;2023-02-18T05:28:16;95736.69;;;4.89;49.76
61292;BME280;47165;42.664;23.368;2023-02-18T05:30:41;95744.69;;;4.78;50.04
61292;BME280;47165;42.664;23.368;2023-02-18T05:33:07;95734.44;;;4.74;50.68
61292;BME280;47165;42.664;23.368;2023-02-18T05:35:32;95730.09;;;4.76;50.21
61292;BME280;47165;42.664;23.368;2023-02-18T05:37:58;95728.19;;;4.84;50.28
61292;BME280;47165;42.664;23.368;2023-02-18T05:40:23;95727.13;;;4.91;49.85
61292;BME280;47165;42.664;23.368;2023-02-18T05:42:48;95737.22;;;5.02;49.61
61292;BME280;47165;42.664;23.368;2023-02-18T05:45:14;95733.59;;;5.11;49.51
61292;BME280;47165;42.664;23.368;2023-02-18T05:47:39;95731.06;;;5.08;49.23
61292;BME280;47165;42.664;23.368;2023-02-18T05:50:05;95735.31;;;5.10;49.28
61292;BME280;47165;42.664;23.368;2023-02-18T05:52:31;95738.94;;;5.03;49.61
61292;BME280;47165;42.664;23.368;2023-02-18T05:54:56;95738.09;;;5.02;49.42
61292;BME280;47165;42.664;23.368;2023-02-18T05:57:22;95758.66;;;5.09;49.24
61292;BME280;47165;42.664;23.368;2023-02-18T05:59:47;95761.94;;;5.17;49.38
61292;BME280;47165;42.664;23.368;2023-02-18T06:02:13;95756.59;;;5.23;49.05
61292;BME280;47165;42.664;23.368;2023-02-18T06:04:39;95761.69;;;5.26;49.16
61292;BME280;47165;42.664;23.368;2023-02-18T06:07:05;95758.16;;;5.30;49.21
61292;BME280;47165;42.664;23.368;2023-02-18T06:09:31;95760.63;;;5.35;48.97
61292;BME280;47165;42.664;23.368;2023-02-18T06:11:56;95752.00;;;5.34;48.95
61292;BME280;47165;42.664;23.368;2023-02-18T06:14:21;95746.66;;;5.42;48.99
61292;BME280;47165;42.664;23.368;2023-02-18T06:16:47;95754.31;;;5.45;48.73
61292;BME280;47165;42.664;23.368;2023-02-18T06:19:12;95728.38;;;5.48;48.64
61292;BME280;47165;42.664;23.368;2023-02-18T06:21:38;95742.69;;;5.61;48.48
61292;BME280;47165;42.664;23.368;2023-02-18T06:24:03;95726.88;;;5.39;49.52
61292;BME280;47165;42.664;23.368;2023-02-18T06:26:29;95742.25;;;5.46;48.86
61292;BME280;47165;42.664;23.368;2023-02-18T06:28:54;95734.31;;;5.52;48.84
61292;BME280;47165;42.664;23.368;2023-02-18T06:31:20;95737.63;;;5.57;48.67
61292;BME280;47165;42.664;23.368;2023-02-18T06:33:45;95733.25;;;5.59;48.58
61292;BME280;47165;42.664;23.368;2023-02-18T06:36:12;95728.66;;;5.70;48.34
61292;BME280;47165;42.664;23.368;2023-02-18T06:38:39;95712.22;;;5.71;48.34
61292;BME280;47165;42.664;23.368;2023-02-18T06:41:06;95733.63;;;5.78;48.32
61292;BME280;47165;42.664;23.368;2023-02-18T06:43:32;95743.16;;;5.77;48.16
61292;BME280;47165;42.664;23.368;2023-02-18T06:45:58;95724.13;;;5.78;48.24
61292;BME280;47165;42.664;23.368;2023-02-18T06:48:23;95729.03;;;5.89;48.09
61292;BME280;47165;42.664;23.368;2023-02-18T06:50:49;95735.31;;;6.13;48.00
61292;BME280;47165;42.664;23.368;2023-02-18T06:53:14;95729.84;;;6.22;48.25
61292;BME280;47165;42.664;23.368;2023-02-18T06:55:43;95721.03;;;6.30;47.50
61292;BME280;47165;42.664;23.368;2023-02-18T06:58:10;95733.09;;;6.31;47.42
61292;BME280;47165;42.664;23.368;2023-02-18T07:00:36;95744.22;;;6.34;47.52
61292;BME280;47165;42.664;23.368;2023-02-18T07:03:01;95738.75;;;6.43;47.42
61292;BME280;47165;42.664;23.368;2023-02-18T07:05:27;95726.41;;;6.52;47.46
61292;BME280;47165;42.664;23.368;2023-02-18T07:07:53;95729.63;;;6.60;47.61
61292;BME280;47165;42.664;23.368;2023-02-18T07:10:18;95734.78;;;6.61;47.53
61292;BME280;47165;42.664;23.368;2023-02-18T07:12:43;95717.44;;;6.63;47.29
61292;BME280;47165;42.664;23.368;2023-02-18T07:15:09;95728.44;;;6.72;47.26
61292;BME280;47165;42.664;23.368;2023-02-18T07:17:35;95727.38;;;6.79;47.13
61292;BME280;47165;42.664;23.368;2023-02-18T07:20:00;95719.00;;;6.69;47.94
61292;BME280;47165;42.664;23.368;2023-02-18T07:22:25;95718.69;;;6.78;47.48
61292;BME280;47165;42.664;23.368;2023-02-18T07:24:52;95719.28;;;6.88;47.47
61292;BME280;47165;42.664;23.368;2023-02-18T07:27:18;95719.84;;;6.98;47.41
61292;BME280;47165;42.664;23.368;2023-02-18T07:29:43;95711.34;;;6.93;46.64
61292;BME280;47165;42.664;23.368;2023-02-18T07:32:11;95719.50;;;7.09;46.26
61292;BME280;47165;42.664;23.368;2023-02-18T07:34:37;95724.47;;;7.16;46.62
61292;BME280;47165;42.664;23.368;2023-02-18T07:37:02;95731.81;;;7.30;46.57
61292;BME280;47165;42.664;23.368;2023-02-18T07:39:38;95737.63;;;7.38;46.25
61292;BME280;47165;42.664;23.368;2023-02-18T07:42:04;95728.63;;;7.49;46.54
61292;BME280;47165;42.664;23.368;2023-02-18T07:44:29;95731.81;;;7.57;45.94
61292;BME280;47165;42.664;23.368;2023-02-18T07:46:55;95724.69;;;7.62;45.76
61292;BME280;47165;42.664;23.368;2023-02-18T07:49:21;95733.25;;;7.65;45.26
61292;BME280;47165;42.664;23.368;2023-02-18T07:51:47;95750.44;;;7.70;45.19
61292;BME280;47165;42.664;23.368;2023-02-18T07:54:13;95715.72;;;7.71;45.39
61292;BME280;47165;42.664;23.368;2023-02-18T07:56:38;95747.16;;;7.90;45.04
61292;BME280;47165;42.664;23.368;2023-02-18T07:59:05;95728.03;;;7.91;43.90
61292;BME280;47165;42.664;23.368;2023-02-18T08:01:30;95735.53;;;8.00;43.71
61292;BME280;47165;42.664;23.368;2023-02-18T08:03:56;95732.72;;;8.06;43.60
61292;BME280;47165;42.664;23.368;2023-02-18T08:06:25;95721.75;;;7.98;43.11
61292;BME280;47165;42.664;23.368;2023-02-18T08:08:52;95731.72;;;8.10;43.42
61292;BME280;47165;42.664;23.368;2023-02-18T08:11:17;95728.03;;;8.16;43.35
61292;BME280;47165;42.664;23.368;2023-02-18T08:13:43;95729.34;;;8.27;42.93
61292;BME280;47165;42.664;23.368;2023-02-18T08:16:09;95725.44;;;8.41;42.55
61292;BME280;47165;42.664;23.368;2023-02-18T08:18:34;95722.38;;;8.53;42.04
61292;BME280;47165;42.664;23.368;2023-02-18T08:20:59;95711.84;;;8.56;42.27
61292;BME280;47165;42.664;23.368;2023-02-18T08:23:25;95709.69;;;8.68;42.00
61292;BME280;47165;42.664;23.368;2023-02-18T08:25:52;95711.41;;;8.45;41.93
61292;BME280;47165;42.664;23.368;2023-02-18T08:28:22;95720.09;;;8.68;41.98
61292;BME280;47165;42.664;23.368;2023-02-18T08:30:50;95724.59;;;8.86;41.76
61292;BME280;47165;42.664;23.368;2023-02-18T08:33:16;95710.97;;;9.01;41.47
61292;BME280;47165;42.664;23.368;2023-02-18T08:35:44;95722.69;;;9.13;41.18
61292;BME280;47165;42.664;23.368;2023-02-18T08:38:10;95715.22;;;9.26;40.76
61292;BME280;47165;42.664;23.368;2023-02-18T08:40:36;95698.28;;;9.36;41.19
61292;BME280;47165;42.664;23.368;2023-02-18T08:43:01;95695.97;;;9.51;40.98
61292;BME280;47165;42.664;23.368;2023-02-18T08:45:27;95686.84;;;9.61;40.82
61292;BME280;47165;42.664;23.368;2023-02-18T08:47:52;95697.69;;;9.72;40.01
61292;BME280;47165;42.664;23.368;2023-02-18T08:50:18;95691.00;;;9.85;39.78
61292;BME280;47165;42.664;23.368;2023-02-18T08:52:45;95703.72;;;9.93;39.49
61292;BME280;47165;42.664;23.368;2023-02-18T08:55:11;95708.47;;;10.04;39.15
61292;BME280;47165;42.664;23.368;2023-02-18T08:57:36;95705.47;;;10.13;39.62
61292;BME280;47165;42.664;23.368;2023-02-18T09:00:02;95698.78;;;10.26;39.73
61292;BME280;47165;42.664;23.368;2023-02-18T09:02:28;95708.88;;;10.36;38.98
61292;BME280;47165;42.664;23.368;2023-02-18T09:04:53;95700.59;;;10.45;38.70
61292;BME280;47165;42.664;23.368;2023-02-18T09:07:18;95696.66;;;10.55;38.58
61292;BME280;47165;42.664;23.368;2023-02-18T09:09:44;95705.00;;;10.63;37.80
61292;BME280;47165;42.664;23.368;2023-02-18T09:12:09;95703.31;;;10.62;37.48
61292;BME280;47165;42.664;23.368;2023-02-18T09:14:35;95695.31;;;10.65;37.62
61292;BME280;47165;42.664;23.368;2023-02-18T09:17:00;95695.38;;;10.64;37.77
61292;BME280;47165;42.664;23.368;2023-02-18T09:19:26;95694.13;;;10.73;37.84
61292;BME280;47165;42.664;23.368;2023-02-18T09:21:51;95702.38;;;10.82;37.51
61292;BME280;47165;42.664;23.368;2023-02-18T09:24:18;95704.78;;;10.87;37.31
61292;BME280;47165;42.664;23.368;2023-02-18T09:26:43;95708.94;;;10.91;37.30
61292;BME280;47165;42.664;23.368;2023-02-18T09:29:09;95693.19;;;10.93;36.82
61292;BME280;47165;42.664;23.368;2023-02-18T09:31:34;95694.66;;;10.98;36.60
61292;BME280;47165;42.664;23.368;2023-02-18T09:34:01;95676.72;;;11.10;36.63
61292;BME280;47165;42.664;23.368;2023-02-18T09:36:27;95682.88;;;10.90;36.87
61292;BME280;47165;42.664;23.368;2023-02-18T09:38:53;95665.69;;;11.03;36.70
61292;BME280;47165;42.664;23.368;2023-02-18T09:41:44;95672.56;;;11.23;36.58
61292;BME280;47165;42.664;23.368;2023-02-18T09:46:41;95668.81;;;11.28;36.34
61292;BME280;47165;42.664;23.368;2023-02-18T09:49:15;95674.81;;;11.48;36.04
61292;BME280;47165;42.664;23.368;2023-02-18T09:51:43;95676.69;;;11.63;36.26
61292;BME280;47165;42.664;23.368;2023-02-18T09:54:11;95681.13;;;11.79;36.16
61292;BME280;47165;42.664;23.368;2023-02-18T09:56:37;95681.47;;;11.90;36.27
61292;BME280;47165;42.664;23.368;2023-02-18T09:59:05;95682.16;;;11.94;35.43
61292;BME280;47165;42.664;23.368;2023-02-18T10:01:36;95677.84;;;11.93;35.26
61292;BME280;47165;42.664;23.368;2023-02-18T10:04:12;95670.66;;;11.79;35.51
61292;BME280;47165;42.664;23.368;2023-02-18T10:06:39;95665.75;;;11.73;36.25
61292;BME280;47165;42.664;23.368;2023-02-18T10:11:41;95655.69;;;12.00;35.93
61292;BME280;47165;42.664;23.368;2023-02-18T10:14:12;95653.53;;;11.91;35.59
61292;BME280;47165;42.664;23.368;2023-02-18T10:16:38;95643.56;;;11.97;35.96
61292;BME280;47165;42.664;23.368;2023-02-18T10:21:53;95644.50;;;12.30;34.99
61292;BME280;47165;42.664;23.368;2023-02-18T10:24:32;95652.16;;;12.66;35.01
61292;BME280;47165;42.664;23.368;2023-02-18T10:26:59;95645.22;;;12.81;34.50
61292;BME280;47165;42.664;23.368;2023-02-18T10:29:25;95644.09;;;13.01;33.95
61292;BME280;47165;42.664;23.368;2023-02-18T10:32:15;95638.66;;;13.20;33.68
61292;BME280;47165;42.664;23.368;2023-02-18T10:34:51;95628.13;;;13.52;33.90
61292;BME280;47165;42.664;23.368;2023-02-18T10:37:30;95631.06;;;13.76;33.52
61292;BME280;47165;42.664;23.368;2023-02-18T10:40:08;95623.88;;;13.79;32.32
61292;BME280;47165;42.664;23.368;2023-02-18T10:51:11;95600.19;;;15.07;30.27
61292;BME280;47165;42.664;23.368;2023-02-18T10:53:41;95595.00;;;15.33;30.38
61292;BME280;47165;42.664;23.368;2023-02-18T10:56:07;95588.75;;;15.61;30.72
61292;BME280;47165;42.664;23.368;2023-02-18T10:58:42;95585.72;;;16.05;30.53
61292;BME280;47165;42.664;23.368;2023-02-18T11:01:19;95582.94;;;16.45;28.76
61292;BME280;47165;42.664;23.368;2023-02-18T11:03:46;95579.50;;;16.82;29.00
61292;BME280;47165;42.664;23.368;2023-02-18T11:06:33;95569.78;;;17.06;28.30
61292;BME280;47165;42.664;23.368;2023-02-18T11:09:02;95568.31;;;17.02;26.64
61292;BME280;47165;42.664;23.368;2023-02-18T11:11:31;95561.16;;;17.16;27.72
61292;BME280;47165;42.664;23.368;2023-02-18T11:14:00;95555.03;;;17.39;27.55
61292;BME280;47165;42.664;23.368;2023-02-18T11:16:40;95537.84;;;17.80;26.32
61292;BME280;47165;42.664;23.368;2023-02-18T11:19:38;95547.34;;;17.94;25.13
61292;BME280;47165;42.664;23.368;2023-02-18T11:22:14;95535.94;;;17.94;25.02
61292;BME280;47165;42.664;23.368;2023-02-18T11:24:40;95540.03;;;18.09;24.56
61292;BME280;47165;42.664;23.368;2023-02-18T11:27:19;95525.50;;;18.26;24.61
61292;BME280;47165;42.664;23.368;2023-02-18T11:29:49;95518.75;;;18.44;25.28
61292;BME280;47165;42.664;23.368;2023-02-18T11:32:16;95516.91;;;18.79;24.78
61292;BME280;47165;42.664;23.368;2023-02-18T11:34:42;95506.88;;;18.82;23.48
61292;BME280;47165;42.664;23.368;2023-02-18T11:37:11;95510.31;;;19.05;22.98
61292;BME280;47165;42.664;23.368;2023-02-18T11:39:43;95505.84;;;18.62;22.69
61292;BME280;47165;42.664;23.368;2023-02-18T11:42:13;95481.81;;;18.98;22.47
61292;BME280;47165;42.664;23.368;2023-02-18T11:44:42;95483.81;;;19.68;22.71
61292;BME280;47165;42.664;23.368;2023-02-18T11:49:38;95484.50;;;20.73;21.33
61292;BME280;47165;42.664;23.368;2023-02-18T11:54:39;95474.16;;;21.28;21.54
61292;BME280;47165;42.664;23.368;2023-02-18T11:57:08;95479.34;;;21.39;20.97
61292;BME280;47165;42.664;23.368;2023-02-18T11:59:37;95461.72;;;21.38;20.56
61292;BME280;47165;42.664;23.368;2023-02-18T12:04:52;95459.97;;;22.23;19.49
61292;BME280;47165;42.664;23.368;2023-02-18T12:07:40;95442.59;;;22.19;19.60
61292;BME280;47165;42.664;23.368;2023-02-18T12:10:13;95428.72;;;22.25;19.12
61292;BME280;47165;42.664;23.368;2023-02-18T12:49:09;95399.66;;;21.86;21.12
61292;BME280;47165;42.664;23.368;2023-02-18T12:54:39;95393.69;;;22.30;20.39
61292;BME280;47165;42.664;23.368;2023-02-18T13:05:37;95377.31;;;22.70;19.57
61292;BME280;47165;42.664;23.368;2023-02-18T13:13:17;95384.72;;;23.21;19.14
61292;BME280;47165;42.664;23.368;2023-02-18T13:15:49;95392.75;;;22.85;18.28
61292;BME280;47165;42.664;23.368;2023-02-18T13:18:33;95384.06;;;22.65;18.68
61292;BME280;47165;42.664;23.368;2023-02-18T13:21:05;95381.38;;;22.47;19.17
61292;BME280;47165;42.664;23.368;2023-02-18T13:23:53;95385.34;;;21.87;19.58
61292;BME280;47165;42.664;23.368;2023-02-18T13:26:20;95390.00;;;21.38;19.54
61292;BME280;47165;42.664;23.368;2023-02-18T13:34:07;95387.00;;;20.55;20.87
61292;BME280;47165;42.664;23.368;2023-02-18T13:36:58;95394.59;;;19.69;21.68
61292;BME280;47165;42.664;23.368;2023-02-18T13:39:27;95389.09;;;19.82;21.79
61292;BME280;47165;42.664;23.368;2023-02-18T13:42:18;95386.56;;;19.80;21.94
61292;BME280;47165;42.664;23.368;2023-02-18T13:52:48;95402.19;;;19.32;24.12
61292;BME280;47165;42.664;23.368;2023-02-18T13:55:19;95381.44;;;19.06;24.24
61292;BME280;47165;42.664;23.368;2023-02-18T13:57:52;95392.25;;;18.93;24.65
61292;BME280;47165;42.664;23.368;2023-02-18T14:00:24;95388.81;;;18.81;25.02
61292;BME280;47165;42.664;23.368;2023-02-18T14:02:58;95387.47;;;18.76;24.92
61292;BME280;47165;42.664;23.368;2023-02-18T14:05:24;95383.84;;;18.88;24.70
61292;BME280;47165;42.664;23.368;2023-02-18T14:08:10;95389.91;;;18.79;25.11
61292;BME280;47165;42.664;23.368;2023-02-18T14:10:37;95381.56;;;18.51;25.26
61292;BME280;47165;42.664;23.368;2023-02-18T14:13:22;95385.28;;;18.27;25.58
61292;BME280;47165;42.664;23.368;2023-02-18T14:15:54;95390.28;;;18.30;25.52
61292;BME280;47165;42.664;23.368;2023-02-18T14:18:29;95388.91;;;18.15;25.47
61292;BME280;47165;42.664;23.368;2023-02-18T14:33:39;95397.34;;;17.19;26.99
61292;BME280;47165;42.664;23.368;2023-02-18T14:42:22;95397.81;;;17.24;27.13
61292;BME280;47165;42.664;23.368;2023-02-18T14:47:24;95400.47;;;17.46;26.95
61292;BME280;47165;42.664;23.368;2023-02-18T14:49:54;95393.53;;;17.45;26.88
61292;BME280;47165;42.664;23.368;2023-02-18T14:52:33;95388.50;;;17.54;26.72
61292;BME280;47165;42.664;23.368;2023-02-18T14:55:03;95390.03;;;17.56;26.79
61292;BME280;47165;42.664;23.368;2023-02-18T14:58:00;95387.16;;;17.93;26.46
61292;BME280;47165;42.664;23.368;2023-02-18T15:00:28;95394.47;;;17.78;26.56
61292;BME280;47165;42.664;23.368;2023-02-18T15:02:57;95380.44;;;17.89;26.47
61292;BME280;47165;42.664;23.368;2023-02-18T15:05:28;95383.91;;;17.89;26.56
61292;BME280;47165;42.664;23.368;2023-02-18T15:08:21;95380.72;;;18.18;26.14
61292;BME280;47165;42.664;23.368;2023-02-18T15:11:02;95386.78;;;17.75;26.68
61292;BME280;47165;42.664;23.368;2023-02-18T15:13:39;95385.94;;;17.63;27.18
61292;BME280;47165;42.664;23.368;2023-02-18T15:16:12;95390.16;;;17.43;27.22
61292;BME280;47165;42.664;23.368;2023-02-18T15:18:44;95388.50;;;17.54;26.98
61292;BME280;47165;42.664;23.368;2023-02-18T15:21:37;95388.47;;;17.20;27.59
61292;BME280;47165;42.664;23.368;2023-02-18T15:24:11;95384.84;;;16.98;27.94
61292;BME280;47165;42.664;23.368;2023-02-18T15:26:45;95377.16;;;16.71;28.10
61292;BME280;47165;42.664;23.368;2023-02-18T15:29:23;95371.41;;;16.90;28.07
61292;BME280;47165;42.664;23.368;2023-02-18T15:31:48;95378.34;;;16.91;27.99
61292;BME280;47165;42.664;23.368;2023-02-18T15:36:49;95372.97;;;16.68;28.66
61292;BME280;47165;42.664;23.368;2023-02-18T15:39:15;95363.72;;;16.27;29.25
61292;BME280;47165;42.664;23.368;2023-02-18T15:41:40;95358.00;;;16.34;29.51
61292;BME280;47165;42.664;23.368;2023-02-18T15:44:06;95356.72;;;16.39;29.37
61292;BME280;47165;42.664;23.368;2023-02-18T15:46:32;95350.53;;;16.52;28.89
61292;BME280;47165;42.664;23.368;2023-02-18T15:48:59;95354.97;;;16.27;29.36